Time;durP1;ratioP1;P1;durP2;ratioP2;P2;SDS_P1;SDS_P2;PMS_P1;PMS_P2;Temp;Humidity;BMP_temperature;BMP_pressure;BME280_temperature;BME280_humidity;BME280_pressure;Samples;Min_cycle;Max_cycle;Signal;HPM_P1;HPM_P2
2024/04/25 00:01:55;;;;;;;0.30;0.10;;;;;;;7.77;84.21;99431.56;5382030;26;20896;-47
2024/04/25 00:04:22;;;;;;;0.30;0.20;;;;;;;7.76;84.22;99435.13;5382522;26;20530;-48
2024/04/25 00:06:48;;;;;;;0.30;0.20;;;;;;;7.94;83.85;99425.75;5376243;26;20530;-47
2024/04/25 00:09:15;;;;;;;0.30;0.20;;;;;;;7.84;83.36;99437.56;5355191;26;20477;-47
2024/04/25 00:11:41;;;;;;;0.30;0.20;;;;;;;8.07;82.75;99434.16;5352781;26;20867;-47
2024/04/25 00:14:08;;;;;;;0.30;0.20;;;;;;;8.12;82.01;99427.81;5382248;26;20651;-47
2024/04/25 00:16:35;;;;;;;0.30;0.20;;;;;;;8.09;81.75;99424.41;5381991;26;20559;-48
2024/04/25 00:19:02;;;;;;;0.30;0.20;;;;;;;8.15;82.37;99421.56;5382199;26;20594;-48
2024/04/25 00:21:28;;;;;;;0.30;0.10;;;;;;;8.21;81.88;99423.97;5381997;26;20563;-48
2024/04/25 00:23:55;;;;;;;0.30;0.20;;;;;;;7.84;82.76;99429.63;5381966;26;20477;-47
2024/04/25 00:26:21;;;;;;;0.30;0.20;;;;;;;7.87;83.10;99424.22;5378818;26;20877;-48
2024/04/25 00:28:48;;;;;;;0.30;0.20;;;;;;;7.79;82.92;99423.59;5382058;26;21016;-48
2024/04/25 00:31:14;;;;;;;0.30;0.20;;;;;;;7.77;82.39;99418.34;5381677;26;20469;-47
2024/04/25 00:33:41;;;;;;;0.30;0.20;;;;;;;7.86;83.05;99419.84;5381949;26;20540;-48
2024/04/25 00:36:08;;;;;;;0.30;0.20;;;;;;;8.05;82.01;99420.13;5381591;26;21017;-49
2024/04/25 00:38:34;;;;;;;0.30;0.20;;;;;;;7.85;82.73;99418.97;5377290;26;20586;-48
2024/04/25 00:41:01;;;;;;;0.30;0.10;;;;;;;7.73;82.55;99422.00;5381436;26;20524;-49
2024/04/25 00:43:32;;;;;;;0.30;0.20;;;;;;;7.69;82.75;99420.38;5381808;26;20590;-48
2024/04/25 00:45:59;;;;;;;0.30;0.20;;;;;;;7.78;82.12;99421.84;5381621;26;20532;-48
2024/04/25 00:48:30;;;;;;;0.30;0.20;;;;;;;7.84;82.05;99416.38;5380256;26;20528;-47
2024/04/25 00:50:59;;;;;;;0.30;0.20;;;;;;;7.65;82.40;99421.38;5381611;26;20468;-47
2024/04/25 00:53:27;;;;;;;0.30;0.10;;;;;;;7.72;82.74;99417.63;5381624;26;20472;-47
2024/04/25 00:55:56;;;;;;;0.30;0.20;;;;;;;7.50;83.17;99419.19;5381437;26;20477;-48
2024/04/25 00:58:25;;;;;;;0.30;0.10;;;;;;;7.47;83.24;99419.28;5381591;26;20477;-48
2024/04/25 01:00:53;;;;;;;0.30;0.20;;;;;;;7.58;82.87;99420.69;5381609;26;20525;-48
2024/04/25 01:03:20;;;;;;;0.30;0.20;;;;;;;7.71;82.71;99414.13;5381327;26;20484;-47
2024/04/25 01:05:48;;;;;;;0.30;0.20;;;;;;;7.55;82.39;99417.28;5381232;26;20931;-48
2024/04/25 01:08:14;;;;;;;0.30;0.20;;;;;;;7.65;82.27;99410.78;5356118;26;20482;-47
2024/04/25 01:10:41;;;;;;;0.30;0.20;;;;;;;7.43;83.04;99413.25;5354027;26;20497;-47
2024/04/25 01:13:08;;;;;;;0.30;0.20;;;;;;;7.47;83.04;99417.50;5372542;26;20468;-47
2024/04/25 01:15:35;;;;;;;0.30;0.20;;;;;;;7.48;83.09;99416.59;5381293;26;20532;-47
2024/04/25 01:18:01;;;;;;;0.30;0.10;;;;;;;7.53;82.84;99413.81;5381150;26;20521;-48
2024/04/25 01:20:28;;;;;;;0.30;0.10;;;;;;;7.81;81.79;99405.88;5381389;26;20587;-48
2024/04/25 01:22:59;;;;;;;0.30;0.20;;;;;;;7.70;81.81;99407.09;5381044;26;20464;-47
2024/04/25 01:25:26;;;;;;;0.30;0.10;;;;;;;7.59;82.52;99409.22;5381155;26;20480;-48
2024/04/25 01:27:53;;;;;;;0.30;0.20;;;;;;;7.54;82.18;99403.22;5380970;26;20474;-48
2024/04/25 01:30:21;;;;;;;0.30;0.20;;;;;;;7.58;81.93;99399.53;5381279;26;20477;-47
2024/04/25 01:32:47;;;;;;;0.30;0.20;;;;;;;7.71;81.91;99405.31;5380772;26;20511;-48
2024/04/25 01:35:15;;;;;;;0.30;0.20;;;;;;;7.51;81.72;99402.41;5381167;26;20488;-48
2024/04/25 01:37:41;;;;;;;0.30;0.20;;;;;;;7.54;81.14;99402.31;5377325;26;21032;-47
2024/04/25 01:40:08;;;;;;;0.30;0.20;;;;;;;7.46;80.78;99397.28;5381124;26;20540;-48
2024/04/25 01:42:35;;;;;;;0.30;0.20;;;;;;;7.50;80.71;99390.97;5380644;26;20472;-48
2024/04/25 01:45:02;;;;;;;0.30;0.20;;;;;;;7.23;82.20;99387.38;5380837;26;20929;-48
2024/04/25 01:47:28;;;;;;;0.30;0.20;;;;;;;7.21;82.99;99394.50;5380511;26;20851;-48
2024/04/25 01:49:55;;;;;;;0.30;0.20;;;;;;;7.24;82.77;99389.09;5380830;26;20481;-48
2024/04/25 01:52:21;;;;;;;0.30;0.20;;;;;;;7.07;83.38;99397.53;5380665;26;20529;-47
2024/04/25 01:54:48;;;;;;;0.30;0.20;;;;;;;7.27;82.37;99381.13;5380936;26;20477;-48
2024/04/25 01:57:14;;;;;;;0.30;0.20;;;;;;;7.24;82.79;99385.59;5380466;26;20860;-48
2024/04/25 01:59:41;;;;;;;0.30;0.20;;;;;;;7.26;82.56;99387.28;5380779;26;20525;-48
2024/04/25 02:02:08;;;;;;;0.30;0.20;;;;;;;7.16;82.69;99392.91;5380281;26;20472;-48
2024/04/25 02:04:34;;;;;;;0.30;0.10;;;;;;;7.00;83.67;99387.19;5381056;26;20492;-50
2024/04/25 02:07:01;;;;;;;0.30;0.20;;;;;;;7.07;83.36;99386.09;5371323;26;21030;-50
2024/04/25 02:09:27;;;;;;;0.30;0.20;;;;;;;7.05;83.58;99386.16;5333378;26;20562;-50
2024/04/25 02:11:54;;;;;;;0.30;0.20;;;;;;;7.22;82.94;99388.28;5355433;26;20473;-50
2024/04/25 02:14:20;;;;;;;0.30;0.20;;;;;;;7.00;83.23;99396.00;5380395;26;20468;-50
2024/04/25 02:16:47;;;;;;;0.30;0.20;;;;;;;7.11;83.41;99391.25;5380183;26;20473;-50
2024/04/25 02:19:13;;;;;;;0.30;0.20;;;;;;;6.97;83.51;99389.91;5380415;26;20524;-50
2024/04/25 02:27:10;;;;;;;0.30;0.20;;;;;;;7.10;83.58;99386.88;5380241;26;20472;-50
2024/04/25 02:29:37;;;;;;;0.30;0.20;;;;;;;7.00;83.56;99384.56;5379907;26;20508;-51
2024/04/25 02:32:04;;;;;;;0.30;0.20;;;;;;;6.84;83.75;99387.59;5380250;26;20476;-50
2024/04/25 02:34:30;;;;;;;0.30;0.20;;;;;;;6.90;83.88;99393.66;5379813;26;20473;-51
2024/04/25 02:36:57;;;;;;;0.30;0.20;;;;;;;6.93;83.63;99388.28;5380008;26;20472;-50
2024/04/25 02:39:23;;;;;;;0.30;0.20;;;;;;;6.88;84.08;99385.78;5373384;26;20814;-51
2024/04/25 02:41:50;;;;;;;0.30;0.10;;;;;;;6.89;84.00;99387.50;5379769;26;20515;-50
2024/04/25 02:44:17;;;;;;;0.30;0.20;;;;;;;6.82;83.55;99394.72;5379715;26;20812;-50
2024/04/25 02:46:43;;;;;;;0.30;0.20;;;;;;;6.80;84.18;99398.31;5379812;26;20540;-50
2024/04/25 02:49:11;;;;;;;0.30;0.17;;;;;;;6.93;83.67;99389.13;5381380;26;20480;-51
2024/04/25 02:51:37;;;;;;;0.30;0.20;;;;;;;7.04;83.35;99396.75;5383343;26;20521;-51
2024/04/25 02:54:04;;;;;;;0.30;0.10;;;;;;;7.05;83.03;99399.34;5383021;26;21065;-51
2024/04/25 02:56:30;;;;;;;0.30;0.13;;;;;;;6.96;83.44;99402.25;5383175;26;21161;-50
2024/04/25 02:58:57;;;;;;;0.30;0.20;;;;;;;6.67;83.81;99400.41;5383204;26;20928;-50
2024/04/25 03:01:24;;;;;;;0.30;0.10;;;;;;;6.71;84.27;99390.63;5383261;26;20468;-50
2024/04/25 03:03:50;;;;;;;0.30;0.20;;;;;;;6.94;84.16;99398.78;5383090;26;20476;-50
2024/04/25 03:06:17;;;;;;;0.30;0.10;;;;;;;6.97;83.73;99392.53;5382954;26;20484;-51
2024/04/25 03:08:44;;;;;;;0.30;0.17;;;;;;;6.79;83.02;99391.31;5367328;26;20488;-50
2024/04/25 03:11:11;;;;;;;0.30;0.20;;;;;;;6.82;84.37;99386.78;5348966;26;20593;-50
2024/04/25 03:13:37;;;;;;;0.30;0.20;;;;;;;7.04;82.26;99391.47;5381944;26;20554;-51
2024/04/25 03:16:07;;;;;;;0.30;0.20;;;;;;;7.01;83.36;99386.28;5382998;26;20492;-50
2024/04/25 03:18:34;;;;;;;0.30;0.20;;;;;;;6.64;83.76;99383.81;5382984;26;20555;-50
2024/04/25 03:21:05;;;;;;;0.30;0.20;;;;;;;6.60;83.68;99384.81;5383573;26;20472;-50
2024/04/25 03:23:34;;;;;;;0.30;0.20;;;;;;;6.77;82.96;99383.44;5383396;26;20469;-50
2024/04/25 03:26:02;;;;;;;0.30;0.20;;;;;;;6.66;83.69;99372.28;5382604;26;20496;-50
2024/04/25 03:28:30;;;;;;;0.30;0.20;;;;;;;6.98;82.91;99370.50;5383025;26;20472;-50
2024/04/25 03:30:56;;;;;;;0.30;0.20;;;;;;;6.77;82.53;99375.50;5382489;26;20473;-50
2024/04/25 03:33:24;;;;;;;0.30;0.20;;;;;;;6.63;83.33;99371.50;5382983;26;20508;-50
2024/04/25 03:35:51;;;;;;;0.30;0.10;;;;;;;6.79;82.61;99378.09;5382691;26;20605;-49
2024/04/25 03:38:18;;;;;;;0.30;0.10;;;;;;;6.65;81.89;99377.59;5378552;26;20517;-50
2024/04/25 03:40:44;;;;;;;0.30;0.20;;;;;;;6.49;83.29;99374.53;5381118;26;20496;-50
2024/04/25 03:43:11;;;;;;;0.30;0.20;;;;;;;6.49;83.90;99372.75;5383248;26;20523;-50
2024/04/25 03:45:37;;;;;;;0.30;0.17;;;;;;;6.61;83.24;99375.97;5382624;26;20477;-49
2024/04/25 03:48:04;;;;;;;0.30;0.20;;;;;;;6.73;82.99;99376.50;5382668;26;20521;-51
2024/04/25 03:50:32;;;;;;;0.30;0.10;;;;;;;6.39;83.72;99378.31;5382247;26;20537;-50
2024/04/25 03:52:59;;;;;;;0.30;0.20;;;;;;;6.37;84.00;99373.06;5382659;26;20476;-50
2024/04/25 03:55:26;;;;;;;0.30;0.20;;;;;;;6.64;83.34;99384.66;5382554;26;20537;-50
2024/04/25 03:57:52;;;;;;;0.30;0.20;;;;;;;6.42;83.36;99375.56;5382528;26;20521;-50
2024/04/25 04:00:19;;;;;;;0.30;0.20;;;;;;;6.50;83.48;99386.81;5381019;26;20529;-50
2024/04/25 04:02:46;;;;;;;0.30;0.10;;;;;;;6.58;83.24;99384.84;5382515;26;20810;-50
2024/04/25 04:05:14;;;;;;;0.30;0.20;;;;;;;6.69;82.57;99387.16;5382081;26;20538;-51
2024/04/25 04:07:42;;;;;;;0.30;0.10;;;;;;;6.42;83.61;99386.13;5364117;26;20485;-50
2024/04/25 04:10:09;;;;;;;0.30;0.13;;;;;;;6.51;82.97;99385.91;5357512;26;20523;-50
2024/04/25 04:12:35;;;;;;;0.30;0.20;;;;;;;6.57;83.30;99377.81;5365865;26;21024;-50
2024/04/25 04:15:02;;;;;;;0.30;0.20;;;;;;;6.45;83.02;99383.44;5382048;26;20491;-51
2024/04/25 04:17:30;;;;;;;0.30;0.20;;;;;;;6.34;84.31;99388.13;5382301;26;20524;-50
2024/04/25 04:19:57;;;;;;;0.30;0.20;;;;;;;6.19;85.19;99381.47;5382007;26;20480;-50
2024/04/25 04:22:24;;;;;;;0.30;0.10;;;;;;;6.18;85.19;99388.53;5380784;26;20477;-50
2024/04/25 04:24:51;;;;;;;0.30;0.10;;;;;;;6.41;84.76;99389.69;5382037;26;20528;-50
2024/04/25 04:27:17;;;;;;;0.30;0.20;;;;;;;6.24;84.93;99384.84;5381969;26;20939;-50
2024/04/25 04:29:44;;;;;;;0.30;0.20;;;;;;;6.28;84.92;99390.91;5381714;26;20473;-50
2024/04/25 04:32:11;;;;;;;0.30;0.20;;;;;;;6.22;85.52;99394.59;5379988;26;20472;-50
2024/04/25 04:34:37;;;;;;;0.30;0.20;;;;;;;6.42;84.16;99392.28;5381609;26;20536;-50
2024/04/25 04:37:04;;;;;;;0.30;0.10;;;;;;;6.12;84.81;99393.94;5380559;26;20536;-50
2024/04/25 04:39:30;;;;;;;0.30;0.20;;;;;;;6.07;84.87;99393.19;5378293;26;21073;-50
2024/04/25 04:41:57;;;;;;;0.30;0.20;;;;;;;5.96;85.17;99395.22;5382678;26;20477;-50
2024/04/25 04:44:23;;;;;;;0.30;0.20;;;;;;;6.02;85.53;99394.19;5380939;26;20878;-50
2024/04/25 04:46:50;;;;;;;0.30;0.10;;;;;;;6.02;85.21;99399.47;5382764;26;20548;-50
2024/04/25 04:49:16;;;;;;;0.30;0.20;;;;;;;5.99;85.89;99395.16;5381824;26;20560;-50
2024/04/25 04:51:43;;;;;;;0.30;0.10;;;;;;;6.07;85.59;99394.97;5381773;26;20472;-50
2024/04/25 04:54:10;;;;;;;0.30;0.10;;;;;;;6.03;86.39;99394.19;5381639;26;21019;-50
2024/04/25 04:56:38;;;;;;;0.30;0.20;;;;;;;5.93;87.17;99390.91;5382235;26;20480;-50
2024/04/25 04:59:05;;;;;;;0.30;0.20;;;;;;;6.14;86.45;99394.75;5381660;26;20560;-50
2024/04/25 05:01:32;;;;;;;0.30;0.17;;;;;;;5.98;87.27;99389.91;5381577;26;20849;-50
2024/04/25 05:03:58;;;;;;;0.30;0.20;;;;;;;5.87;88.42;99396.28;5381351;26;20528;-50
2024/04/25 05:06:25;;;;;;;0.30;0.10;;;;;;;5.88;88.45;99398.00;5381620;26;20480;-49
2024/04/25 05:08:53;;;;;;;0.30;0.20;;;;;;;5.93;88.81;99405.84;5349523;26;20525;-49
2024/04/25 05:11:19;;;;;;;0.30;0.10;;;;;;;5.90;89.00;99401.53;5346217;26;20478;-49
2024/04/25 05:13:46;;;;;;;0.30;0.20;;;;;;;6.38;88.37;99406.47;5381440;26;20529;-49
2024/04/25 05:16:12;;;;;;;0.30;0.10;;;;;;;6.89;85.37;99405.13;5381202;26;20484;-50
2024/04/25 05:18:39;;;;;;;0.30;0.20;;;;;;;6.83;83.97;99406.13;5381521;26;20480;-50
2024/04/25 05:21:06;;;;;;;0.30;0.20;;;;;;;7.33;82.46;99398.56;5380881;26;20551;-50
2024/04/25 05:23:32;;;;;;;0.30;0.10;;;;;;;7.72;79.70;99407.06;5381161;26;20472;-49
2024/04/25 05:25:59;;;;;;;0.30;0.20;;;;;;;8.09;77.70;99404.09;5380682;26;20536;-49
2024/04/25 05:28:25;;;;;;;0.30;0.10;;;;;;;8.39;76.02;99407.53;5381040;26;20468;-50
2024/04/25 05:30:52;;;;;;;0.30;0.20;;;;;;;8.49;75.92;99414.22;5380854;26;20476;-50
2024/04/25 05:33:18;;;;;;;0.30;0.20;;;;;;;8.75;74.32;99412.47;5381231;26;20472;-50
2024/04/25 05:35:47;;;;;;;0.30;0.20;;;;;;;8.70;73.68;99417.06;5380696;26;20588;-50
2024/04/25 05:38:14;;;;;;;0.30;0.20;;;;;;;8.77;74.07;99411.50;5377303;26;20484;-50
2024/04/25 05:40:41;;;;;;;0.30;0.20;;;;;;;8.38;74.01;99416.41;5380824;26;20524;-50
2024/04/25 05:43:07;;;;;;;0.30;0.20;;;;;;;8.67;73.39;99412.75;5380708;26;20920;-50
2024/04/25 05:45:39;;;;;;;0.30;0.20;;;;;;;8.82;72.84;99411.34;5380546;26;20488;-48
2024/04/25 05:48:06;;;;;;;0.30;0.20;;;;;;;9.02;71.47;99421.22;5380908;26;20529;-48
2024/04/25 05:50:33;;;;;;;0.30;0.20;;;;;;;9.56;71.53;99415.63;5380525;26;20964;-47
2024/04/25 05:52:59;;;;;;;0.30;0.20;;;;;;;9.82;68.03;99419.06;5364437;26;20850;-47
2024/04/25 05:55:26;;;;;;;0.83;0.83;;;;;;;9.72;69.51;99418.56;5373852;26;20533;-47
2024/04/25 05:57:52;;;;;;;0.30;0.20;;;;;;;9.56;68.61;99417.44;5380577;26;20615;-47
2024/04/25 06:00:19;;;;;;;0.30;0.20;;;;;;;9.14;70.49;99426.94;5380363;26;20885;-48
2024/04/25 06:02:45;;;;;;;0.30;0.20;;;;;;;8.75;72.72;99423.06;5380610;26;20525;-49
2024/04/25 06:05:12;;;;;;;0.30;0.20;;;;;;;8.44;73.16;99423.25;5380384;26;20908;-47
2024/04/25 06:07:39;;;;;;;0.30;0.20;;;;;;;8.36;74.55;99428.84;5362755;26;20549;-48
2024/04/25 06:10:06;;;;;;;0.30;0.20;;;;;;;8.27;75.06;99424.66;5354355;26;20518;-48
2024/04/25 06:12:32;;;;;;;0.30;0.20;;;;;;;8.07;75.71;99428.88;5363200;26;20484;-48
2024/04/25 06:14:59;;;;;;;0.30;0.20;;;;;;;8.06;75.89;99421.84;5333762;26;21029;-47
2024/04/25 06:17:26;;;;;;;0.30;0.20;;;;;;;8.15;75.08;99424.19;5380400;26;20476;-48
2024/04/25 06:19:52;;;;;;;0.40;0.30;;;;;;;8.07;75.16;99429.72;5380111;26;20472;-49
2024/04/25 06:22:19;;;;;;;0.30;0.17;;;;;;;8.06;74.23;99435.06;5380324;26;20477;-48
2024/04/25 06:24:46;;;;;;;0.30;0.20;;;;;;;7.94;74.45;99423.97;5382969;26;20528;-48
2024/04/25 06:27:12;;;;;;;0.30;0.20;;;;;;;8.13;74.11;99426.91;5384063;26;20511;-48
2024/04/25 06:29:39;;;;;;;0.30;0.20;;;;;;;8.45;73.67;99439.09;5383515;26;20528;-48
2024/04/25 06:32:06;;;;;;;0.30;0.20;;;;;;;8.55;72.77;99437.88;5383578;26;20521;-48
2024/04/25 06:34:33;;;;;;;0.30;0.20;;;;;;;8.75;71.05;99426.56;5383309;26;20472;-48
2024/04/25 06:37:02;;;;;;;0.30;0.20;;;;;;;9.09;71.45;99431.56;5383137;26;20840;-49
2024/04/25 06:39:28;;;;;;;0.30;0.20;;;;;;;9.44;69.18;99422.28;5380181;26;20468;-49
2024/04/25 06:41:56;;;;;;;0.33;0.23;;;;;;;9.48;66.66;99431.00;5343009;26;20483;-48
2024/04/25 06:44:25;;;;;;;0.30;0.20;;;;;;;9.25;66.71;99431.84;5332726;26;20476;-48
2024/04/25 06:47:01;;;;;;;0.30;0.20;;;;;;;9.34;67.55;99423.56;5383190;26;21036;-48
2024/04/25 06:49:28;;;;;;;0.30;0.20;;;;;;;9.46;67.84;99430.19;5383423;26;20804;-48
2024/04/25 06:51:54;;;;;;;0.30;0.20;;;;;;;9.82;67.03;99430.53;5383195;26;20988;-49
2024/04/25 06:54:21;;;;;;;0.30;0.20;;;;;;;9.71;65.10;99428.31;5383404;26;20516;-49
2024/04/25 06:56:47;;;;;;;0.30;0.20;;;;;;;10.03;66.32;99416.44;5383116;26;21072;-48
2024/04/25 06:59:14;;;;;;;0.30;0.20;;;;;;;9.90;65.15;99425.81;5383363;26;20472;-48
2024/04/25 07:01:41;;;;;;;0.30;0.20;;;;;;;9.83;63.89;99423.44;5382954;26;20525;-48
2024/04/25 07:04:07;;;;;;;0.30;0.20;;;;;;;9.75;65.04;99419.31;5383214;26;21035;-47
2024/04/25 07:06:34;;;;;;;0.30;0.20;;;;;;;10.12;65.82;99422.28;5382736;26;21139;-48
2024/04/25 07:09:03;;;;;;;0.30;0.20;;;;;;;10.12;65.76;99427.59;5364180;26;20464;-48
2024/04/25 07:11:30;;;;;;;0.30;0.20;;;;;;;10.07;65.93;99419.81;5374634;26;20484;-48
2024/04/25 07:13:57;;;;;;;0.30;0.20;;;;;;;9.92;66.30;99425.75;5383013;26;21036;-49
2024/04/25 07:16:23;;;;;;;0.30;0.20;;;;;;;9.70;65.63;99420.41;5382667;26;20537;-48
2024/04/25 07:18:50;;;;;;;0.30;0.20;;;;;;;9.78;67.10;99421.84;5383012;26;20472;-49
2024/04/25 07:21:16;;;;;;;0.30;0.20;;;;;;;9.46;68.23;99427.53;5382639;26;21073;-48
2024/04/25 07:23:43;;;;;;;0.30;0.20;;;;;;;9.46;68.38;99428.41;5382768;26;20535;-48
2024/04/25 07:26:10;;;;;;;0.30;0.20;;;;;;;9.67;68.29;99432.00;5382513;26;20993;-48
2024/04/25 07:28:36;;;;;;;0.30;0.20;;;;;;;9.49;67.86;99427.41;5382885;26;20468;-48
2024/04/25 07:31:04;;;;;;;0.30;0.20;;;;;;;9.26;67.48;99433.56;5382448;26;20477;-49
2024/04/25 07:33:30;;;;;;;0.30;0.20;;;;;;;9.24;68.54;99431.91;5382655;26;20469;-48
2024/04/25 07:35:57;;;;;;;0.30;0.20;;;;;;;9.61;69.74;99431.41;5382067;26;20611;-49
2024/04/25 07:38:24;;;;;;;0.30;0.20;;;;;;;9.80;66.60;99425.31;5378242;26;20512;-48
2024/04/25 07:40:50;;;;;;;0.30;0.20;;;;;;;9.55;67.05;99432.47;5382423;26;20578;-48
2024/04/25 07:43:17;;;;;;;0.30;0.20;;;;;;;9.45;66.99;99436.41;5382736;26;20476;-48
2024/04/25 07:45:43;;;;;;;0.30;0.20;;;;;;;9.12;68.66;99431.44;5382521;26;20537;-49
2024/04/25 07:48:12;;;;;;;0.30;0.20;;;;;;;9.40;69.88;99431.28;5382614;26;20532;-48
2024/04/25 07:50:39;;;;;;;0.30;0.20;;;;;;;9.50;67.44;99437.09;5335734;26;20488;-49
2024/04/25 07:53:06;;;;;;;0.30;0.20;;;;;;;9.48;68.03;99438.97;5382608;26;20556;-49
2024/04/25 07:55:33;;;;;;;0.30;0.20;;;;;;;9.66;67.33;99435.59;5382189;26;20472;-49
2024/04/25 07:57:59;;;;;;;0.30;0.20;;;;;;;9.40;68.31;99431.28;5382806;26;20464;-49
2024/04/25 08:00:26;;;;;;;0.30;0.20;;;;;;;9.39;69.49;99423.38;5382210;26;20476;-49
2024/04/25 08:02:53;;;;;;;0.30;0.20;;;;;;;9.53;69.07;99426.38;5382342;26;20838;-49
2024/04/25 08:05:20;;;;;;;0.30;0.20;;;;;;;9.63;68.86;99427.75;5382506;26;20541;-51
2024/04/25 08:07:47;;;;;;;0.30;0.20;;;;;;;9.65;68.12;99422.38;5362057;26;20490;-51
2024/04/25 08:10:13;;;;;;;0.30;0.20;;;;;;;9.85;68.24;99424.25;5356966;26;21015;-51
2024/04/25 08:12:42;;;;;;;0.30;0.20;;;;;;;9.57;67.20;99421.81;5367258;26;20476;-50
2024/04/25 08:15:09;;;;;;;0.30;0.20;;;;;;;9.74;69.13;99427.34;5381777;26;21136;-51
2024/04/25 08:17:36;;;;;;;0.30;0.20;;;;;;;9.56;69.91;99422.72;5382200;26;20533;-51
2024/04/25 08:20:03;;;;;;;0.30;0.20;;;;;;;9.10;72.67;99432.41;5381826;26;21021;-51
2024/04/25 08:22:30;;;;;;;0.43;0.40;;;;;;;9.15;76.95;99433.97;5382088;26;20473;-51
2024/04/25 08:24:57;;;;;;;0.30;0.20;;;;;;;9.33;76.16;99431.59;5381741;26;20533;-51
2024/04/25 08:27:23;;;;;;;0.30;0.20;;;;;;;8.42;82.04;99428.63;5381938;26;20633;-51
2024/04/25 08:29:50;;;;;;;0.30;0.20;;;;;;;8.23;83.74;99430.13;5381713;26;20885;-51
2024/04/25 08:32:17;;;;;;;0.30;0.20;;;;;;;7.96;83.32;99430.09;5381798;26;20481;-50
2024/04/25 08:34:46;;;;;;;0.30;0.20;;;;;;;8.03;85.18;99425.47;5381690;26;20488;-51
2024/04/25 08:37:13;;;;;;;0.30;0.20;;;;;;;8.24;84.79;99424.78;5378459;26;20524;-51
2024/04/25 08:39:39;;;;;;;0.30;0.10;;;;;;;8.28;83.41;99420.22;5380557;26;20521;-51
2024/04/25 08:42:10;;;;;;;0.30;0.20;;;;;;;8.45;85.89;99419.69;5381943;26;20525;-51
2024/04/25 08:44:39;;;;;;;0.30;0.20;;;;;;;8.64;85.50;99418.16;5381858;26;21011;-51
2024/04/25 08:47:08;;;;;;;0.30;0.20;;;;;;;9.02;85.21;99419.44;5380584;26;20488;-51
2024/04/25 08:49:36;;;;;;;0.30;0.20;;;;;;;9.04;82.16;99420.22;5381486;26;20582;-51
2024/04/25 08:52:04;;;;;;;0.30;0.20;;;;;;;9.06;82.87;99421.06;5381283;26;21017;-51
2024/04/25 08:54:32;;;;;;;0.30;0.20;;;;;;;9.07;81.49;99417.50;5381675;26;20469;-51
2024/04/25 08:56:58;;;;;;;0.30;0.20;;;;;;;9.09;86.62;99417.44;5381275;26;20513;-51
2024/04/25 08:59:25;;;;;;;0.30;0.20;;;;;;;9.80;84.55;99408.50;5381619;26;20469;-51
2024/04/25 09:01:53;;;;;;;0.30;0.20;;;;;;;10.03;82.83;99405.81;5381238;26;20472;-51
2024/04/25 09:04:25;;;;;;;0.30;0.20;;;;;;;10.59;80.65;99394.63;5381682;26;20473;-50
2024/04/25 09:06:52;;;;;;;0.30;0.20;;;;;;;10.98;79.16;99400.00;5374874;26;20560;-51
2024/04/25 09:09:23;;;;;;;0.30;0.20;;;;;;;11.13;76.31;99397.59;5354362;26;20546;-51
2024/04/25 09:11:54;;;;;;;0.30;0.20;;;;;;;11.58;72.70;99392.78;5354119;26;20476;-51
2024/04/25 09:14:21;;;;;;;0.30;0.20;;;;;;;11.21;71.01;99388.31;5381402;26;20844;-50
2024/04/25 09:16:47;;;;;;;0.30;0.20;;;;;;;11.16;69.84;99385.00;5381095;26;20476;-51
2024/04/25 09:19:14;;;;;;;0.30;0.20;;;;;;;10.59;70.77;99384.00;5381381;26;20520;-51
2024/04/25 09:21:41;;;;;;;0.30;0.20;;;;;;;11.03;71.70;99382.97;5380871;26;20528;-51
2024/04/25 09:24:08;;;;;;;0.30;0.20;;;;;;;11.04;71.89;99382.03;5381142;26;20472;-50
2024/04/25 09:26:35;;;;;;;0.30;0.20;;;;;;;10.46;71.48;99376.63;5380756;26;20544;-51
2024/04/25 09:29:02;;;;;;;0.30;0.20;;;;;;;10.36;71.36;99371.69;5381118;26;20484;-51
2024/04/25 09:31:31;;;;;;;0.30;0.20;;;;;;;10.62;73.43;99380.34;5380834;26;20521;-50
2024/04/25 09:33:58;;;;;;;0.30;0.20;;;;;;;10.84;71.24;99380.28;5380846;26;20532;-50
2024/04/25 09:36:25;;;;;;;0.30;0.20;;;;;;;11.23;70.23;99378.47;5380491;26;20560;-51
2024/04/25 09:38:51;;;;;;;0.30;0.20;;;;;;;11.52;68.36;99381.59;5376688;26;20594;-51
2024/04/25 09:41:19;;;;;;;0.30;0.20;;;;;;;10.43;69.31;99408.66;5380655;26;20550;-51
2024/04/25 09:43:47;;;;;;;0.30;0.20;;;;;;;9.39;73.29;99400.38;5380908;26;20532;-51
2024/04/25 09:46:21;;;;;;;0.30;0.20;;;;;;;9.13;79.87;99411.09;5334646;26;20484;-50
2024/04/25 09:48:53;;;;;;;0.30;0.20;;;;;;;8.66;80.99;99411.03;5380633;26;20479;-50
2024/04/25 09:51:36;;;;;;;0.30;0.20;;;;;;;8.24;85.63;99423.91;5380788;26;20528;-50
2024/04/25 09:54:10;;;;;;;0.30;0.20;;;;;;;8.04;87.97;99437.78;5380858;26;20533;-50
2024/04/25 09:56:38;;;;;;;0.30;0.20;;;;;;;7.86;88.29;99431.28;5380651;26;20540;-51
2024/04/25 09:59:28;;;;;;;0.30;0.20;;;;;;;8.20;89.15;99409.03;5380422;26;20594;-50
2024/04/25 10:01:56;;;;;;;0.30;0.20;;;;;;;7.86;92.10;99407.47;5380298;26;20476;-51
2024/04/25 10:04:24;;;;;;;0.30;0.20;;;;;;;8.08;95.14;99406.78;5380564;26;20553;-50
2024/04/25 10:06:52;;;;;;;0.30;0.20;;;;;;;8.16;92.30;99394.16;5374257;26;20606;-51
2024/04/25 10:09:19;;;;;;;0.30;0.20;;;;;;;8.15;85.31;99392.44;5333290;26;20474;-51
2024/04/25 10:11:48;;;;;;;0.30;0.20;;;;;;;8.58;83.22;99395.38;5352496;26;20472;-51
2024/04/25 10:14:25;;;;;;;0.30;0.20;;;;;;;8.42;81.84;99380.09;5380369;26;21111;-50
2024/04/25 10:16:51;;;;;;;0.30;0.20;;;;;;;8.68;78.15;99385.34;5380304;26;20472;-51
2024/04/25 10:19:18;;;;;;;0.30;0.20;;;;;;;9.04;82.79;99385.78;5380335;26;20835;-51
2024/04/25 10:21:46;;;;;;;0.30;0.20;;;;;;;9.01;82.75;99391.19;5380032;26;20529;-51
2024/04/25 10:24:15;;;;;;;0.30;0.20;;;;;;;9.33;84.81;99384.72;5380157;26;20529;-51
2024/04/25 10:26:48;;;;;;;0.30;0.20;;;;;;;9.60;79.88;99384.56;5333662;26;20476;-51
2024/04/25 10:29:15;;;;;;;0.30;0.20;;;;;;;9.46;82.12;99379.81;5379978;26;20516;-51
2024/04/25 10:31:41;;;;;;;0.30;0.20;;;;;;;9.47;87.04;99378.88;5380297;26;20909;-51
2024/04/25 10:34:09;;;;;;;0.30;0.20;;;;;;;9.38;89.29;99380.09;5379749;26;20536;-51
2024/04/25 10:36:36;;;;;;;0.30;0.20;;;;;;;9.38;83.34;99358.88;5379869;26;21008;-51
2024/04/25 10:39:03;;;;;;;0.30;0.20;;;;;;;9.03;81.21;99346.94;5375765;26;20875;-51
2024/04/25 10:41:36;;;;;;;0.30;0.20;;;;;;;9.33;84.58;99329.03;5379978;26;20572;-51
2024/04/25 10:44:08;;;;;;;0.30;0.20;;;;;;;9.57;82.60;99328.94;5379668;26;21016;-51
2024/04/25 10:46:38;;;;;;;0.30;0.20;;;;;;;9.81;79.21;99330.63;5379756;26;20480;-51
2024/04/25 10:49:05;;;;;;;0.30;0.20;;;;;;;10.04;77.20;99333.19;5379635;26;20540;-51
2024/04/25 10:51:34;;;;;;;0.30;0.20;;;;;;;10.33;79.66;99334.66;5379861;26;20515;-50
2024/04/25 10:54:01;;;;;;;0.30;0.20;;;;;;;10.62;79.82;99330.72;5379561;26;20611;-50
2024/04/25 10:56:27;;;;;;;0.30;0.20;;;;;;;10.46;76.68;99324.34;5379701;26;20597;-51
2024/04/25 10:58:55;;;;;;;0.30;0.20;;;;;;;10.71;79.02;99321.47;5379415;26;20535;-52
2024/04/25 11:01:30;;;;;;;0.30;0.20;;;;;;;11.14;76.13;99327.50;5379786;26;20484;-51
2024/04/25 11:04:01;;;;;;;0.30;0.20;;;;;;;11.38;74.53;99325.50;5377534;26;20582;-51
2024/04/25 11:06:32;;;;;;;0.30;0.20;;;;;;;11.58;75.25;99315.59;5378649;26;20591;-51
2024/04/25 11:08:59;;;;;;;0.30;0.20;;;;;;;11.36;76.15;99324.69;5333594;26;20821;-51
2024/04/25 11:11:27;;;;;;;0.30;0.20;;;;;;;11.50;77.63;99325.75;5350079;26;20486;-51
2024/04/25 11:13:54;;;;;;;0.30;0.20;;;;;;;11.22;75.25;99318.22;5383043;26;20480;-50
2024/04/25 11:16:21;;;;;;;0.30;0.20;;;;;;;10.94;75.45;99323.09;5382525;26;20475;-51
2024/04/25 11:18:49;;;;;;;0.30;0.20;;;;;;;11.10;75.93;99323.25;5382977;26;20480;-51
2024/04/25 11:21:23;;;;;;;0.30;0.20;;;;;;;11.63;77.06;99314.50;5382773;26;20480;-51
2024/04/25 11:23:50;;;;;;;0.30;0.20;;;;;;;11.39;74.70;99320.09;5382792;26;20529;-51
2024/04/25 11:26:20;;;;;;;0.30;0.20;;;;;;;10.90;72.07;99310.88;5382555;26;20484;-51
2024/04/25 11:28:47;;;;;;;0.30;0.20;;;;;;;10.72;70.33;99301.09;5382808;26;20899;-50
2024/04/25 11:31:14;;;;;;;0.30;0.20;;;;;;;11.02;70.85;99304.13;5382600;26;20529;-51
2024/04/25 11:33:40;;;;;;;0.30;0.20;;;;;;;11.19;73.37;99304.19;5382655;26;20480;-51
2024/04/25 11:36:07;;;;;;;0.30;0.20;;;;;;;11.37;70.46;99302.47;5382395;26;20484;-51
2024/04/25 11:38:34;;;;;;;0.30;0.20;;;;;;;11.27;70.82;99300.25;5378909;26;20528;-51
2024/04/25 11:41:00;;;;;;;0.30;0.20;;;;;;;11.27;70.28;99297.59;5382461;26;20521;-51
2024/04/25 11:43:27;;;;;;;0.30;0.20;;;;;;;11.51;69.87;99295.56;5382465;26;20472;-51
2024/04/25 11:45:54;;;;;;;0.30;0.20;;;;;;;11.66;67.28;99288.63;5382326;26;20602;-51
2024/04/25 11:48:22;;;;;;;0.30;0.20;;;;;;;11.92;68.68;99283.81;5382654;26;20529;-51